M I D A S
Marine Information and Data Acquisition System
Tripno 989 of the Zeeleeuw from 2005-11-28 07:35:38 to 2005-11-28 14:38:53
Back to CruiseResearch ActivitiesStationsMapUnderway DataData graphs

EquipmentUnitsComment
TimeDGPSUTC
LatitudeDGPSDM.mWGS84
LongitudeDGPSDM.mWGS84
HeadingGyrodeg 
SOGDGPSknotsSpeed over ground
COGDGPSdegCourse over ground
DepthEcho soundermeters200 kHz
Missing or incorrect values are displayed as -999
Navigation data collected by the RV Zeeleeuw from 2005-11-28 07:21:17 to 2005-11-28 14:53:13
                                                                                    Next 1000 lines
Time Latitude Longitude Heading SOG COG Depth
2005-11-28 07:21:27 51°13.58 2°56.135 127.4 0.3 316 9
2005-11-28 07:21:32 51°13.58 2°56.135 127.3 0.3 316 8.9
2005-11-28 07:21:37 51°13.58 2°56.135 127.1 0.2 126 8.9
2005-11-28 07:21:42 51°13.58 2°56.136 127.1 0.2 126 8.8
2005-11-28 07:21:47 51°13.58 2°56.136 127.2 0.3 128 8.8
2005-11-28 07:21:52 51°13.58 2°56.136 127.2 0.3 128 8.6
2005-11-28 07:21:58 51°13.58 2°56.136 127.4 0.2 268 8.6
2005-11-28 07:22:02 51°13.58 2°56.136 127.4 0.1 300 8.7
2005-11-28 07:22:07 51°13.581 2°56.136 127.5 0.1 355 8.9
2005-11-28 07:22:12 51°13.581 2°56.136 127.1 -999 20 8.6
2005-11-28 07:22:16 51°13.581 2°56.137 127.2 -999 104 8.7
2005-11-28 07:22:22 51°13.581 2°56.136 127.4 -999 48 8.7
2005-11-28 07:22:27 51°13.58 2°56.135 127.3 0.1 270 8.8
2005-11-28 07:22:32 51°13.581 2°56.135 127.3 0.1 295 8.8
2005-11-28 07:22:36 51°13.581 2°56.135 127.3 0.1 305 8.9
2005-11-28 07:22:42 51°13.581 2°56.135 127.3 0.1 305 8.8
2005-11-28 07:22:47 51°13.581 2°56.135 127.3 0.1 326 8.9
2005-11-28 07:22:52 51°13.581 2°56.136 127.3 -999 84 9
2005-11-28 07:22:56 51°13.581 2°56.136 127.2 0.1 116 9
2005-11-28 07:23:02 51°13.581 2°56.136 127.2 0.1 116 9.1
2005-11-28 07:23:07 51°13.581 2°56.136 127.2 0.3 127 8.8
2005-11-28 07:23:12 51°13.581 2°56.137 127.3 0.2 102 8.6
2005-11-28 07:23:16 51°13.581 2°56.136 127.4 0.1 39 8.7
2005-11-28 07:23:22 51°13.581 2°56.136 127.3 0.1 275 8.6
2005-11-28 07:23:27 51°13.581 2°56.136 127.4 -999 287 8.7
2005-11-28 07:23:32 51°13.581 2°56.136 127.4 -999 190 8.7
2005-11-28 07:23:36 51°13.582 2°56.136 127.3 -999 195 8.9
2005-11-28 07:23:42 51°13.582 2°56.136 127.4 -999 195 8.8
2005-11-28 07:23:47 51°13.582 2°56.136 127.4 -999 297 8.9
2005-11-28 07:23:52 51°13.582 2°56.136 127.5 -999 269 9
2005-11-28 07:23:56 51°13.582 2°56.136 127.5 -999 288 8.8
2005-11-28 07:24:02 51°13.582 2°56.136 127.5 -999 278 8.8
2005-11-28 07:24:07 51°13.582 2°56.136 127.5 -999 269 8.9
2005-11-28 07:24:12 51°13.582 2°56.136 127.5 -999 190 8.8
2005-11-28 07:24:16 51°13.582 2°56.136 127.5 -999 133 8.7
2005-11-28 07:24:22 51°13.582 2°56.137 127.5 0.1 123 8.7
2005-11-28 07:24:27 51°13.582 2°56.137 127.5 0.1 137 8.8
2005-11-28 07:24:32 51°13.582 2°56.137 127.5 0.1 110 8.8
2005-11-28 07:24:36 51°13.582 2°56.137 127.5 -999 139 8.6
2005-11-28 07:24:42 51°13.582 2°56.137 127.5 -999 139 8.8
2005-11-28 07:24:47 51°13.582 2°56.137 127.5 0.1 296 8.8
2005-11-28 07:24:52 51°13.582 2°56.137 127.5 0.1 301 8.9
2005-11-28 07:24:56 51°13.582 2°56.137 127.5 0.1 297 8.8
2005-11-28 07:25:02 51°13.582 2°56.137 127.5 0.1 296 8.9
2005-11-28 07:25:07 51°13.582 2°56.137 127.5 -999 291 9
2005-11-28 07:25:12 51°13.582 2°56.136 127.5 0.1 295 9.1
2005-11-28 07:25:16 51°13.582 2°56.136 127.5 0.1 307 9.1
2005-11-28 07:25:22 51°13.582 2°56.136 127.5 0.1 305 9
2005-11-28 07:25:27 51°13.582 2°56.136 127.5 0.1 301 9.1
2005-11-28 07:25:32 51°13.582 2°56.136 127.4 -999 290 9.1
2005-11-28 07:25:37 51°13.582 2°56.136 127.3 -999 133 9
2005-11-28 07:25:42 51°13.582 2°56.136 127.3 -999 133 9
2005-11-28 07:25:47 51°13.582 2°56.136 127.3 0.1 127 9.1
2005-11-28 07:25:52 51°13.582 2°56.136 127.3 0.1 127 9
2005-11-28 07:25:57 51°13.582 2°56.137 127.3 0.2 129 8.8
2005-11-28 07:26:02 51°13.582 2°56.137 127.3 0.2 126 8.9
2005-11-28 07:26:07 51°13.582 2°56.137 127.4 -999 56 8.8
2005-11-28 07:26:12 51°13.582 2°56.137 127.5 0.1 275 9
2005-11-28 07:26:16 51°13.582 2°56.136 127.6 0.1 304 9
2005-11-28 07:26:22 51°13.582 2°56.136 127.7 0.1 302 9.3
2005-11-28 07:26:27 51°13.582 2°56.136 127.7 0.1 304 9
2005-11-28 07:26:32 51°13.582 2°56.136 127.6 0.1 306 9
2005-11-28 07:26:36 51°13.582 2°56.135 127.6 0.1 303 9.2
2005-11-28 07:26:42 51°13.582 2°56.135 127.5 0.1 154 9
2005-11-28 07:26:47 51°13.582 2°56.136 127.5 0.1 137 9.2
2005-11-28 07:26:52 51°13.582 2°56.136 127.5 0.1 129 8.9
2005-11-28 07:26:58 51°13.582 2°56.136 127.5 0.1 129 8.9
2005-11-28 07:27:02 51°13.582 2°56.137 127.5 0.2 126 8.9
2005-11-28 07:27:07 51°13.581 2°56.137 127.7 0.3 128 8.7
2005-11-28 07:27:12 51°13.581 2°56.137 127.7 0.3 128 8.7
2005-11-28 07:27:18 51°13.581 2°56.137 127.7 -999 124 8.8
2005-11-28 07:27:22 51°13.581 2°56.137 127.8 -999 124 9
2005-11-28 07:27:27 51°13.581 2°56.137 127.9 0.1 270 9
2005-11-28 07:27:32 51°13.581 2°56.137 127.9 0.1 291 9.1
2005-11-28 07:27:36 51°13.581 2°56.137 127.9 0.1 291 8.6
2005-11-28 07:27:42 51°13.581 2°56.137 127.9 -999 268 8.8
2005-11-28 07:27:47 51°13.581 2°56.137 127.9 -999 253 9.1
2005-11-28 07:27:52 51°13.581 2°56.137 127.9 -999 256 8.7
2005-11-28 07:27:58 51°13.581 2°56.137 128 -999 256 8.8
2005-11-28 07:28:02 51°13.581 2°56.137 128 -999 159 8.9
2005-11-28 07:28:07 51°13.581 2°56.137 127.9 -999 151 8.6
2005-11-28 07:28:12 51°13.581 2°56.137 127.9 -999 292 8.7
2005-11-28 07:28:16 51°13.581 2°56.137 127.9 -999 315 9
2005-11-28 07:28:22 51°13.581 2°56.138 127.9 -999 315 8.7
2005-11-28 07:28:27 51°13.581 2°56.138 127.9 -999 88 8.6
2005-11-28 07:28:32 51°13.581 2°56.137 127.9 -999 242 8.6
2005-11-28 07:28:36 51°13.581 2°56.137 127.9 -999 312 8.6
2005-11-28 07:28:42 51°13.581 2°56.137 127.9 -999 286 8.6
2005-11-28 07:28:47 51°13.58 2°56.137 127.9 -999 263 8.5
2005-11-28 07:28:52 51°13.58 2°56.137 127.7 -999 226 8.6
2005-11-28 07:28:56 51°13.58 2°56.137 127.6 -999 236 8.6
2005-11-28 07:29:02 51°13.58 2°56.137 127.6 -999 214 8.8
2005-11-28 07:29:07 51°13.58 2°56.137 127.4 -999 216 9
2005-11-28 07:29:12 51°13.58 2°56.137 127.3 0.1 242 8.9
2005-11-28 07:29:16 51°13.58 2°56.137 127 0.1 257 8.8
2005-11-28 07:29:22 51°13.58 2°56.137 126.5 0.1 257 9
2005-11-28 07:29:27 51°13.58 2°56.136 126.1 0.1 287 9.1
2005-11-28 07:29:32 51°13.581 2°56.136 125.5 0.1 299 9.2
2005-11-28 07:29:36 51°13.58 2°56.136 124.8 0.1 246 8.9
2005-11-28 07:29:42 51°13.581 2°56.136 124.8 0.1 286 8.9
2005-11-28 07:29:48 51°13.581 2°56.136 125.3 0.1 244 -999
2005-11-28 07:29:52 51°13.581 2°56.136 125.4 -999 345 -999
2005-11-28 07:29:58 51°13.581 2°56.135 125.4 -999 245 -999
2005-11-28 07:30:02 51°13.581 2°56.136 125.4 -999 48 -999
2005-11-28 07:30:08 51°13.58 2°56.136 125.4 -999 172 -999
2005-11-28 07:30:12 51°13.58 2°56.135 125.4 -999 17 -999
2005-11-28 07:30:17 51°13.58 2°56.135 125.4 -999 184 8.9
2005-11-28 07:30:23 51°13.58 2°56.136 125.4 -999 151 -999
2005-11-28 07:30:28 51°13.58 2°56.136 125.4 -999 79 8.9
2005-11-28 07:30:32 51°13.58 2°56.136 125.4 -999 197 9.1
2005-11-28 07:30:38 51°13.58 2°56.136 125.4 -999 286 -999
2005-11-28 07:30:43 51°13.58 2°56.136 125.4 -999 330 -999
2005-11-28 07:30:48 51°13.581 2°56.136 125.5 -999 356 8.8
2005-11-28 07:30:52 51°13.581 2°56.136 125.8 0.1 2 -999
2005-11-28 07:30:58 51°13.581 2°56.136 126.2 0.1 21 9.1
2005-11-28 07:31:02 51°13.581 2°56.136 126.9 -999 57 8.9
2005-11-28 07:31:07 51°13.581 2°56.136 127.4 -999 53 8.8
2005-11-28 07:31:12 51°13.581 2°56.136 127.7 -999 53 9
2005-11-28 07:31:18 51°13.58 2°56.136 127.8 0.1 143 8.8
2005-11-28 07:31:22 51°13.58 2°56.136 127.9 0.1 143 8.6
2005-11-28 07:31:27 51°13.58 2°56.137 127.7 0.2 111 8.9
2005-11-28 07:31:32 51°13.58 2°56.137 127.7 0.2 107 8.7
2005-11-28 07:31:36 51°13.58 2°56.137 127.7 0.1 300 8.7
2005-11-28 07:31:42 51°13.58 2°56.137 127.7 0.1 285 8.6
2005-11-28 07:31:47 51°13.58 2°56.137 127.4 -999 253 8.7
2005-11-28 07:31:52 51°13.58 2°56.137 127.5 -999 253 8.7
2005-11-28 07:31:58 51°13.58 2°56.137 127.5 -999 268 8.6
2005-11-28 07:32:02 51°13.58 2°56.137 127.7 -999 339 8.6
2005-11-28 07:32:07 51°13.58 2°56.137 127.7 -999 309 8.7
2005-11-28 07:32:12 51°13.58 2°56.137 127.7 -999 47 8.6
2005-11-28 07:32:16 51°13.581 2°56.137 127.7 -999 98 8.7
2005-11-28 07:32:22 51°13.581 2°56.137 127.5 -999 49 8.7
2005-11-28 07:32:27 51°13.581 2°56.137 127.4 -999 324 8.6
2005-11-28 07:32:32 51°13.581 2°56.137 127.4 -999 313 8.7
2005-11-28 07:32:36 51°13.581 2°56.137 127.4 -999 306 8.8
2005-11-28 07:32:42 51°13.581 2°56.137 127.3 -999 306 8.7
2005-11-28 07:32:47 51°13.581 2°56.138 127.3 -999 220 8.7
2005-11-28 07:32:52 51°13.581 2°56.138 127.3 -999 232 8.7
2005-11-28 07:32:56 51°13.581 2°56.138 127.3 -999 255 8.9
2005-11-28 07:33:02 51°13.581 2°56.138 127.3 -999 255 8.6
2005-11-28 07:33:07 51°13.581 2°56.138 127.3 -999 286 8.9
2005-11-28 07:33:12 51°13.581 2°56.138 127.3 -999 288 8.9
2005-11-28 07:33:16 51°13.581 2°56.138 127.3 -999 288 8.6
2005-11-28 07:33:22 51°13.581 2°56.137 127.3 -999 288 8.8
2005-11-28 07:33:27 51°13.581 2°56.137 127.3 0.1 289 8.7
2005-11-28 07:33:32 51°13.581 2°56.137 127.3 0.1 289 9
2005-11-28 07:33:36 51°13.581 2°56.137 127.4 0.1 287 9
2005-11-28 07:33:42 51°13.581 2°56.135 127.5 0.1 283 9
2005-11-28 07:33:47 51°13.581 2°56.135 127.6 0.1 295 9.2
2005-11-28 07:33:52 51°13.581 2°56.135 127.5 0.1 302 9.1
2005-11-28 07:33:56 51°13.581 2°56.135 127.4 0.1 302 8.9
2005-11-28 07:34:02 51°13.581 2°56.135 127.4 -999 2 -999
2005-11-28 07:34:07 51°13.581 2°56.135 127.4 -999 2 9
2005-11-28 07:34:12 51°13.581 2°56.136 127.4 0.1 126 8.9
2005-11-28 07:34:16 51°13.581 2°56.136 127.4 0.2 124 8.8
2005-11-28 07:34:22 51°13.58 2°56.136 127.5 0.2 124 8.7
2005-11-28 07:34:27 51°13.58 2°56.136 127.7 0.3 138 9
2005-11-28 07:34:32 51°13.58 2°56.137 127.7 0.3 138 8.8
2005-11-28 07:34:36 51°13.58 2°56.136 128.2 -999 185 8.8
2005-11-28 07:34:42 51°13.58 2°56.136 128.4 0.1 261 8.8
2005-11-28 07:34:47 51°13.58 2°56.136 128.1 0.1 335 9.1
2005-11-28 07:34:52 51°13.58 2°56.136 127.7 0.1 212 9.1
2005-11-28 07:34:57 51°13.579 2°56.136 127.6 0.1 139 9.1
2005-11-28 07:35:02 51°13.58 2°56.136 127.4 -999 130 8.9
2005-11-28 07:35:07 51°13.58 2°56.136 127.3 -999 44 9
2005-11-28 07:35:12 51°13.58 2°56.136 126.7 -999 54 9
2005-11-28 07:35:16 51°13.58 2°56.136 126.4 0.1 42 8.9
2005-11-28 07:35:22 51°13.58 2°56.136 126.2 -999 110 8.7
2005-11-28 07:35:27 51°13.58 2°56.136 125.9 -999 61 9
2005-11-28 07:35:32 51°13.58 2°56.137 125.6 -999 34 8.7
2005-11-28 07:35:36 51°13.58 2°56.137 125.4 -999 42 8.9
2005-11-28 07:35:42 51°13.58 2°56.137 125.1 0.1 36 8.6
2005-11-28 07:35:47 51°13.58 2°56.137 124.8 -999 53 8.6
2005-11-28 07:35:52 51°13.58 2°56.137 124.3 -999 183 8.6
2005-11-28 07:35:56 51°13.58 2°56.137 123.9 0.1 200 8.6
2005-11-28 07:36:02 51°13.58 2°56.137 123.2 -999 60 8.8
2005-11-28 07:36:07 51°13.58 2°56.137 122.2 -999 52 8.7
2005-11-28 07:36:12 51°13.58 2°56.137 121.2 -999 45 8.8
2005-11-28 07:36:16 51°13.58 2°56.137 120 -999 100 8.6
2005-11-28 07:36:22 51°13.58 2°56.137 119 -999 208 8.9
2005-11-28 07:36:27 51°13.579 2°56.137 118.1 -999 138 8.5
2005-11-28 07:36:32 51°13.579 2°56.138 116.8 -999 143 8.5
2005-11-28 07:36:36 51°13.579 2°56.138 115.7 -999 130 8.5
2005-11-28 07:36:42 51°13.579 2°56.138 114.6 -999 128 8.5
2005-11-28 07:36:47 51°13.579 2°56.138 113.4 -999 13 8.5
2005-11-28 07:36:52 51°13.579 2°56.138 112.4 0.2 309 8.4
2005-11-28 07:36:56 51°13.579 2°56.136 111.6 0.4 299 8.9
2005-11-28 07:37:02 51°13.58 2°56.133 111.2 1.1 290 9.2
2005-11-28 07:37:07 51°13.581 2°56.13 111.2 1.5 286 9.3
2005-11-28 07:37:12 51°13.581 2°56.126 111.3 1.9 289 -999
2005-11-28 07:37:18 51°13.583 2°56.12 111.5 2.2 288 -999
2005-11-28 07:37:22 51°13.584 2°56.116 111.9 2.4 289 -999
2005-11-28 07:37:27 51°13.585 2°56.11 112.7 2.8 290 -999
2005-11-28 07:37:32 51°13.587 2°56.103 114.1 3 291 -999
2005-11-28 07:37:38 51°13.589 2°56.095 115.2 3.3 293 -999
2005-11-28 07:37:42 51°13.59 2°56.089 116.4 3.5 295 -999
2005-11-28 07:37:48 51°13.593 2°56.08 117.5 3.8 296 -999
2005-11-28 07:37:52 51°13.595 2°56.074 118.3 3.9 297 -999
2005-11-28 07:37:58 51°13.598 2°56.064 118.8 4.1 297 -999
2005-11-28 07:38:02 51°13.6 2°56.058 119.2 4.2 298 -999
2005-11-28 07:38:08 51°13.604 2°56.047 119.6 4.4 297 -999
2005-11-28 07:38:12 51°13.607 2°56.04 119.8 4.5 298 -999
2005-11-28 07:38:18 51°13.61 2°56.029 119.8 4.6 297 -999
2005-11-28 07:38:23 51°13.613 2°56.02 119.8 4.6 296 -999
2005-11-28 07:38:28 51°13.616 2°56.011 120.3 4.6 297 -999
2005-11-28 07:38:32 51°13.618 2°56.004 121.3 4.7 298 -999
2005-11-28 07:38:38 51°13.622 2°55.993 122.6 4.7 299 -999
2005-11-28 07:38:43 51°13.624 2°55.986 123.9 4.8 300 -999
2005-11-28 07:38:48 51°13.629 2°55.974 124.7 3.5 302 -999
2005-11-28 07:38:52 51°13.632 2°55.966 125.4 5 302 -999
2005-11-28 07:38:56 51°13.635 2°55.959 126 5.2 303 -999
2005-11-28 07:39:02 51°13.64 2°55.947 126.5 5.2 303 -999
2005-11-28 07:39:08 51°13.645 2°55.935 126.8 5.2 304 -999
2005-11-28 07:39:12 51°13.648 2°55.928 127 5.3 303 -999
2005-11-28 07:39:18 51°13.653 2°55.916 126.7 5.2 304 -999
2005-11-28 07:39:23 51°13.656 2°55.907 125.8 5.2 303 -999
2005-11-28 07:39:28 51°13.66 2°55.897 124.8 5.1 302 -999
2005-11-28 07:39:32 51°13.663 2°55.889 123.3 5.1 301 -999
2005-11-28 07:39:38 51°13.667 2°55.877 121.9 5.1 299 -999
2005-11-28 07:39:42 51°13.669 2°55.869 120.4 5.1 298 -999
2005-11-28 07:39:47 51°13.672 2°55.859 119.1 5.1 297 -999
2005-11-28 07:39:52 51°13.675 2°55.849 117.4 5.1 297 -999
2005-11-28 07:39:58 51°13.679 2°55.837 115.5 4.9 295 -999
2005-11-28 07:40:02 51°13.681 2°55.83 113.9 4.8 293 -999
2005-11-28 07:40:08 51°13.683 2°55.818 112.1 4.6 292 -999
2005-11-28 07:40:12 51°13.685 2°55.811 110.3 4.5 290 -999
2005-11-28 07:40:18 51°13.687 2°55.8 108.1 4.3 288 -999
2005-11-28 07:40:22 51°13.688 2°55.794 105.9 4.2 287 -999
2005-11-28 07:40:27 51°13.69 2°55.785 103.8 4.1 286 12.7
2005-11-28 07:40:32 51°13.691 2°55.777 102.2 3.9 283 -999
2005-11-28 07:40:38 51°13.692 2°55.767 100 3.7 281 -999
2005-11-28 07:40:42 51°13.692 2°55.761 97.2 3.5 278 -999
2005-11-28 07:40:48 51°13.693 2°55.752 95 3.3 276 -999
2005-11-28 07:40:52 51°13.693 2°55.748 93 3 274 -999
2005-11-28 07:40:58 51°13.693 2°55.743 90.6 1.9 276 -999
2005-11-28 07:41:03 51°13.693 2°55.742 86.6 1 281 -999
2005-11-28 07:41:08 51°13.694 2°55.742 80.1 0.5 313 -999
2005-11-28 07:41:12 51°13.694 2°55.742 73.3 0.3 356 -999
2005-11-28 07:41:18 51°13.695 2°55.742 67.4 0.5 21 -999
2005-11-28 07:41:23 51°13.696 2°55.744 61.7 0.8 33 -999
2005-11-28 07:41:28 51°13.698 2°55.745 55.8 1.2 34 -999
2005-11-28 07:41:32 51°13.699 2°55.747 49.4 1.5 30 -999
2005-11-28 07:41:36 51°13.701 2°55.748 42.4 1.8 24 -999
2005-11-28 07:41:43 51°13.706 2°55.75 35.2 2.2 17 -999
2005-11-28 07:41:48 51°13.709 2°55.751 27.2 2.6 11 -999
2005-11-28 07:41:52 51°13.713 2°55.751 18.4 2.9 5 -999
2005-11-28 07:41:58 51°13.719 2°55.75 9.3 3.5 355 -999
2005-11-28 07:42:02 51°13.723 2°55.748 359.7 3.8 348 -999
2005-11-28 07:42:08 51°13.73 2°55.743 349.7 4.2 338 -999
2005-11-28 07:42:12 51°13.734 2°55.739 341.4 4.4 331 12.3
2005-11-28 07:42:16 51°13.738 2°55.734 333.3 4.5 328 11.2
2005-11-28 07:42:22 51°13.743 2°55.728 329.7 5 326 10.5
2005-11-28 07:42:27 51°13.752 2°55.718 327.6 5.1 323 10.9
2005-11-28 07:42:32 51°13.759 2°55.709 327.4 5.1 323 10.5
2005-11-28 07:42:36 51°13.765 2°55.702 327.9 5.1 323 10.8
2005-11-28 07:42:42 51°13.774 2°55.691 327.9 6.8 323 10.9
2005-11-28 07:42:47 51°13.783 2°55.682 328.3 7.2 323 10.9
2005-11-28 07:42:52 51°13.792 2°55.672 329.8 7.7 326 10.7
2005-11-28 07:42:57 51°13.801 2°55.663 331.6 8 328 11
2005-11-28 07:43:02 51°13.812 2°55.654 333.6 8.3 329 11.5
2005-11-28 07:43:07 51°13.822 2°55.645 335.3 8.5 331 11.5
2005-11-28 07:43:12 51°13.833 2°55.635 335.6 8.8 330 11.4
2005-11-28 07:43:17 51°13.844 2°55.626 335.8 9 331 11.6
2005-11-28 07:43:22 51°13.855 2°55.617 336.7 9.1 332 11.4
2005-11-28 07:43:27 51°13.867 2°55.608 338 9.3 333 11.2
2005-11-28 07:43:32 51°13.879 2°55.598 338.8 9.3 333 11.5
2005-11-28 07:43:37 51°13.891 2°55.589 339.3 9.6 335 11.1
2005-11-28 07:43:42 51°13.903 2°55.581 339.7 9.6 335 11.3
2005-11-28 07:43:47 51°13.915 2°55.571 340.2 9.7 335 11.4
2005-11-28 07:43:52 51°13.928 2°55.562 340.5 9.8 335 -999
2005-11-28 07:43:56 51°13.938 2°55.555 340.8 9.9 336 11.8
2005-11-28 07:44:02 51°13.953 2°55.544 341 9.9 335 11.5
2005-11-28 07:44:08 51°13.968 2°55.533 341.1 9.9 337 -999
2005-11-28 07:44:12 51°13.978 2°55.527 340.8 9.9 337 11.7
2005-11-28 07:44:16 51°13.989 2°55.52 341.1 9.9 338 11.6
2005-11-28 07:44:22 51°14.004 2°55.51 342 10 338 -999
2005-11-28 07:44:27 51°14.017 2°55.502 342 9.9 337 -999
2005-11-28 07:44:32 51°14.029 2°55.493 341.2 10 337 11.7
2005-11-28 07:44:37 51°14.042 2°55.484 340.9 9.9 337 11.7
2005-11-28 07:44:42 51°14.054 2°55.476 341.4 9.9 338 11.2
2005-11-28 07:44:47 51°14.067 2°55.467 342.2 9.8 337 -999
2005-11-28 07:44:52 51°14.08 2°55.459 341.1 9.8 336 -999
2005-11-28 07:44:57 51°14.092 2°55.45 339.9 9.8 336 -999
2005-11-28 07:45:02 51°14.104 2°55.441 340 9.8 335 -999
2005-11-28 07:45:08 51°14.119 2°55.429 339.9 9.7 335 -999
2005-11-28 07:45:12 51°14.129 2°55.422 338.6 9.8 334 -999
2005-11-28 07:45:18 51°14.143 2°55.41 338.2 9.9 333 -999
2005-11-28 07:45:23 51°14.155 2°55.399 337.4 9.9 332 -999
2005-11-28 07:45:28 51°14.167 2°55.388 335.6 10 330 -999
2005-11-28 07:45:32 51°14.177 2°55.378 333.7 10 328 -999
2005-11-28 07:45:38 51°14.19 2°55.364 332.3 10.1 327 -999
2005-11-28 07:45:42 51°14.199 2°55.353 330.7 10 325 -999
2005-11-28 07:45:48 51°14.213 2°55.337 328.6 10.1 323 -999
2005-11-28 07:45:52 51°14.221 2°55.325 326.3 10.1 321 -999
2005-11-28 07:45:58 51°14.234 2°55.307 323.9 10.1 318 -999
2005-11-28 07:46:02 51°14.242 2°55.295 322.4 10.1 317 -999
2005-11-28 07:46:08 51°14.253 2°55.276 320.4 10 315 -999
2005-11-28 07:46:12 51°14.261 2°55.263 319.3 10.1 314 -999
2005-11-28 07:46:16 51°14.269 2°55.25 317.9 10.1 314 11.9
2005-11-28 07:46:22 51°14.28 2°55.23 317.3 10.1 312 11.7
2005-11-28 07:46:28 51°14.291 2°55.209 317.1 10.2 312 -999
2005-11-28 07:46:32 51°14.299 2°55.195 315.5 10.4 310 -999
2005-11-28 07:46:36 51°14.307 2°55.181 315.4 10.5 311 12.3
2005-11-28 07:46:42 51°14.318 2°55.16 315.5 10.6 311 11.9
2005-11-28 07:46:48 51°14.33 2°55.138 314.5 10.7 310 12
2005-11-28 07:46:52 51°14.337 2°55.123 313.8 10.8 310 11.8
2005-11-28 07:46:56 51°14.345 2°55.108 313.4 10.9 309 12
2005-11-28 07:47:02 51°14.356 2°55.086 313.4 11.1 309 12
2005-11-28 07:47:07 51°14.366 2°55.067 313.2 11 309 11.9
2005-11-28 07:47:12 51°14.376 2°55.048 313.1 11.1 310 11.9
2005-11-28 07:47:17 51°14.387 2°55.03 314.8 11.2 314 11.9
2005-11-28 07:47:22 51°14.398 2°55.013 317.1 11.3 315 11.7
2005-11-28 07:47:27 51°14.409 2°54.996 317.9 11.2 315 11.7
2005-11-28 07:47:32 51°14.421 2°54.978 318.2 11.4 316 11.9
2005-11-28 07:47:36 51°14.43 2°54.965 319 11.4 317 11.9
2005-11-28 07:47:42 51°14.445 2°54.945 319.7 11.3 318 11.7
2005-11-28 07:47:47 51°14.457 2°54.93 321 11.3 321 11.9
2005-11-28 07:47:52 51°14.469 2°54.915 322.2 11.2 321 11.8
2005-11-28 07:47:57 51°14.482 2°54.9 324.3 11.1 324 11.6
2005-11-28 07:48:02 51°14.494 2°54.887 325.5 11.1 325 11.6
2005-11-28 07:48:07 51°14.508 2°54.874 328.2 11.3 327 11.4
2005-11-28 07:48:12 51°14.522 2°54.863 330.8 11.3 330 11.4
2005-11-28 07:48:16 51°14.533 2°54.854 332.6 11.2 332 11.3
2005-11-28 07:48:22 51°14.55 2°54.841 334.5 11.2 335 11.4
2005-11-28 07:48:27 51°14.564 2°54.831 336.3 11.3 336 11.2
2005-11-28 07:48:32 51°14.579 2°54.82 336.9 11.4 336 11.2
2005-11-28 07:48:37 51°14.593 2°54.81 337.5 11.4 337 11.4
2005-11-28 07:48:42 51°14.608 2°54.801 338.2 11.3 337 11.2
2005-11-28 07:48:47 51°14.623 2°54.791 338.5 11.5 337 11.2
2005-11-28 07:48:52 51°14.638 2°54.781 338.8 11.5 337 11.2
2005-11-28 07:48:56 51°14.65 2°54.773 339.1 11.5 337 11.2
2005-11-28 07:49:02 51°14.669 2°54.761 339.5 11.9 338 11.1
2005-11-28 07:49:07 51°14.684 2°54.751 339.5 12 338 11.3
2005-11-28 07:49:12 51°14.699 2°54.741 339.5 12 338 11
2005-11-28 07:49:16 51°14.712 2°54.733 339.5 12 338 11
2005-11-28 07:49:22 51°14.73 2°54.721 339.2 12 337 11.2
2005-11-28 07:49:27 51°14.746 2°54.711 338.9 11.9 338 10.9
2005-11-28 07:49:32 51°14.761 2°54.701 339 12.1 338 11
2005-11-28 07:49:36 51°14.773 2°54.692 338.8 12.1 337 10.9
2005-11-28 07:49:42 51°14.792 2°54.68 338.9 12.1 337 10.9
2005-11-28 07:49:47 51°14.807 2°54.67 339 12.1 337 10.9
2005-11-28 07:49:52 51°14.823 2°54.659 339.2 12.1 338 10.8
2005-11-28 07:49:56 51°14.835 2°54.651 339.3 12.1 338 10.8
2005-11-28 07:50:02 51°14.854 2°54.638 338.9 12.2 337 10.7
2005-11-28 07:50:07 51°14.87 2°54.627 338.9 12.2 337 10.7
2005-11-28 07:50:12 51°14.886 2°54.617 339 12.3 337 10.6
2005-11-28 07:50:16 51°14.898 2°54.608 338.8 12.3 337 10.7
2005-11-28 07:50:22 51°14.917 2°54.595 338.7 12.3 337 10.5
2005-11-28 07:50:27 51°14.933 2°54.584 338.6 12.4 336 10.5
2005-11-28 07:50:32 51°14.948 2°54.573 338.1 12.3 337 10.6
2005-11-28 07:50:36 51°14.961 2°54.565 338.8 12.3 337 10.6
2005-11-28 07:50:42 51°14.98 2°54.552 339.2 12.5 337 10.5
2005-11-28 07:50:47 51°14.997 2°54.542 338.9 12.5 337 10.3
2005-11-28 07:50:52 51°15.012 2°54.531 339.3 12.5 337 10.3
2005-11-28 07:50:56 51°15.024 2°54.522 339 12.3 337 10.1
2005-11-28 07:51:02 51°15.044 2°54.509 338.7 12.3 337 10
2005-11-28 07:51:07 51°15.059 2°54.498 339 12.2 338 10
2005-11-28 07:51:12 51°15.075 2°54.488 339.1 12.2 336 9.9
2005-11-28 07:51:16 51°15.087 2°54.479 338.9 12.2 336 10.1
2005-11-28 07:51:22 51°15.105 2°54.465 338.2 12.2 336 10.1
2005-11-28 07:51:27 51°15.12 2°54.453 337 12.1 333 10.2
2005-11-28 07:51:32 51°15.134 2°54.44 335.5 12.2 332 10.3
2005-11-28 07:51:36 51°15.146 2°54.429 333.8 12.1 330 10.3
2005-11-28 07:51:42 51°15.164 2°54.412 332.3 12.3 329 10.5
2005-11-28 07:51:47 51°15.178 2°54.398 332.2 12.3 328 10.6
2005-11-28 07:51:52 51°15.192 2°54.383 331 12.3 328 10.5
2005-11-28 07:51:56 51°15.204 2°54.371 330 12.3 328 10.5
2005-11-28 07:52:02 51°15.221 2°54.353 329.8 12.2 327 10.6
2005-11-28 07:52:07 51°15.234 2°54.338 329.6 12.3 326 10.6
2005-11-28 07:52:12 51°15.249 2°54.323 329.5 12.2 326 10.6
2005-11-28 07:52:16 51°15.26 2°54.311 329.1 12.2 326 10.7
2005-11-28 07:52:22 51°15.277 2°54.293 328.8 12.1 326 10.6
2005-11-28 07:52:27 51°15.291 2°54.278 329.1 12.2 327 10.7
2005-11-28 07:52:32 51°15.305 2°54.264 329.8 12.2 327 10.9
2005-11-28 07:52:36 51°15.316 2°54.252 330.1 12.2 327 10.9
2005-11-28 07:52:42 51°15.333 2°54.234 329.8 12.2 327 11.1
2005-11-28 07:52:47 51°15.347 2°54.219 329.5 12.2 326 11
2005-11-28 07:52:52 51°15.361 2°54.204 329.9 12.2 326 11.1
2005-11-28 07:52:56 51°15.372 2°54.192 329.5 12.2 326 11.2
2005-11-28 07:53:02 51°15.389 2°54.174 329.5 12.2 327 11.2
2005-11-28 07:53:07 51°15.403 2°54.159 329.6 12.1 326 11.3
2005-11-28 07:53:12 51°15.417 2°54.143 329.4 12.1 326 11.4
2005-11-28 07:53:16 51°15.429 2°54.131 329.2 12.2 327 11.4
2005-11-28 07:53:22 51°15.445 2°54.113 329.5 12.2 326 11.3
2005-11-28 07:53:27 51°15.459 2°54.098 329.6 12.1 326 11.5
2005-11-28 07:53:32 51°15.473 2°54.083 329.4 12.1 325 11.4
2005-11-28 07:53:37 51°15.487 2°54.069 329.1 12.2 327 11.6
2005-11-28 07:53:42 51°15.501 2°54.054 329.5 12.2 327 11.6
2005-11-28 07:53:47 51°15.516 2°54.039 330.2 12.2 327 11.6
2005-11-28 07:53:52 51°15.529 2°54.025 330.2 12.2 326 11.9
2005-11-28 07:53:56 51°15.541 2°54.013 329.7 12 326 11.7
2005-11-28 07:54:02 51°15.557 2°53.995 329.5 11.9 326 12
2005-11-28 07:54:07 51°15.571 2°53.98 329.6 12.1 327 12
2005-11-28 07:54:12 51°15.585 2°53.966 329.6 12.1 327 12.2
2005-11-28 07:54:16 51°15.597 2°53.954 329.8 12.1 327 12.1
2005-11-28 07:54:22 51°15.614 2°53.936 330.2 12.2 326 12.1
2005-11-28 07:54:27 51°15.628 2°53.921 329.9 12.2 327 12.1
2005-11-28 07:54:32 51°15.642 2°53.907 330 12.2 327 12.1
2005-11-28 07:54:37 51°15.657 2°53.892 330.2 12.2 328 12.2
2005-11-28 07:54:42 51°15.67 2°53.878 330.3 12.2 328 12.4
2005-11-28 07:54:47 51°15.684 2°53.863 330.2 12.1 327 12.3
2005-11-28 07:54:52 51°15.699 2°53.848 330.1 12 326 12.2
2005-11-28 07:54:56 51°15.71 2°53.837 329.6 12 326 12.5
2005-11-28 07:55:02 51°15.727 2°53.82 330.4 12 326 12.3
2005-11-28 07:55:07 51°15.741 2°53.806 330.3 12.1 327 12.4
2005-11-28 07:55:12 51°15.755 2°53.791 330.3 12 328 12.4
2005-11-28 07:55:16 51°15.766 2°53.781 330.4 12 328 12.6
2005-11-28 07:55:22 51°15.783 2°53.763 330.9 12 328 12.7
2005-11-28 07:55:27 51°15.798 2°53.749 330.8 12 328 12.8
2005-11-28 07:55:32 51°15.812 2°53.734 330.6 12 328 12.7
2005-11-28 07:55:36 51°15.823 2°53.722 330.2 12.2 327 12.7
2005-11-28 07:55:42 51°15.84 2°53.704 329.9 12.1 326 12.7
2005-11-28 07:55:47 51°15.854 2°53.69 329.9 12.1 327 12.8
2005-11-28 07:55:52 51°15.868 2°53.675 329.9 12.3 327 12.8
2005-11-28 07:55:56 51°15.879 2°53.664 330.3 12.3 327 12.8
2005-11-28 07:56:02 51°15.896 2°53.646 330.2 12.3 327 12.9
2005-11-28 07:56:07 51°15.91 2°53.631 329.6 12.1 326 12.9
2005-11-28 07:56:12 51°15.924 2°53.616 330.2 12.1 327 13.1
2005-11-28 07:56:17 51°15.938 2°53.602 330.4 12.1 327 13
2005-11-28 07:56:22 51°15.953 2°53.587 330.4 12.2 327 13.1
2005-11-28 07:56:27 51°15.967 2°53.573 330.4 12.3 327 13.2
2005-11-28 07:56:32 51°15.981 2°53.558 330.9 12.3 328 13.2
2005-11-28 07:56:36 51°15.993 2°53.547 330.9 12.2 328 13.2
2005-11-28 07:56:42 51°16.009 2°53.529 330.8 12.1 328 13
2005-11-28 07:56:47 51°16.023 2°53.515 330.9 12 328 13.1
2005-11-28 07:56:52 51°16.037 2°53.501 330.4 12 328 13.3
2005-11-28 07:56:57 51°16.052 2°53.487 330.7 12.1 328 13.3
2005-11-28 07:57:02 51°16.066 2°53.472 330.4 12 327 13.2
2005-11-28 07:57:07 51°16.08 2°53.457 330.5 12.2 327 13.4
2005-11-28 07:57:12 51°16.094 2°53.442 330.3 12.2 326 13.3
2005-11-28 07:57:16 51°16.105 2°53.43 330.1 12.2 326 13.4
2005-11-28 07:57:22 51°16.122 2°53.414 330.2 12.3 327 13.6
2005-11-28 07:57:27 51°16.137 2°53.399 330.5 12.1 327 13.5
2005-11-28 07:57:32 51°16.151 2°53.386 331.2 12.2 329 13.7
2005-11-28 07:57:36 51°16.163 2°53.375 332.3 12.1 330 13.4
2005-11-28 07:57:42 51°16.181 2°53.36 333.3 12 331 13.5
2005-11-28 07:57:47 51°16.195 2°53.348 334.3 12 332 13.7
2005-11-28 07:57:52 51°16.21 2°53.335 335.3 12.1 332 13.5
2005-11-28 07:57:56 51°16.222 2°53.325 335.3 12.1 333 13.7
2005-11-28 07:58:02 51°16.24 2°53.311 335.5 12.2 333 13.5
2005-11-28 07:58:07 51°16.256 2°53.299 336 12.2 333 13.6
2005-11-28 07:58:12 51°16.271 2°53.288 335.9 11.9 335 13.8
2005-11-28 07:58:16 51°16.282 2°53.281 336.6 11.5 337 14.3
2005-11-28 07:58:22 51°16.3 2°53.266 337.5 11.6 334 13.5
2005-11-28 07:58:27 51°16.314 2°53.254 336.3 11.6 332 13.7
2005-11-28 07:58:32 51°16.329 2°53.242 335.8 11.8 332 13.8
2005-11-28 07:58:36 51°16.34 2°53.232 335.4 11.7 332 13.8
2005-11-28 07:58:42 51°16.358 2°53.217 335.1 12 332 13.8
2005-11-28 07:58:47 51°16.373 2°53.205 335.2 12 332 13.8
2005-11-28 07:58:52 51°16.388 2°53.193 335.4 12 332 13.8
2005-11-28 07:58:56 51°16.4 2°53.183 335.5 12.1 332 13.7
2005-11-28 07:59:02 51°16.418 2°53.168 335.3 12.1 332 13.9
2005-11-28 07:59:07 51°16.433 2°53.154 335.2 12.2 331 13.7
2005-11-28 07:59:12 51°16.448 2°53.142 334.8 12.2 331 13.6
2005-11-28 07:59:16 51°16.46 2°53.132 335.3 12.2 332 13.7
2005-11-28 07:59:22 51°16.478 2°53.118 335.8 12.3 334 13.6
2005-11-28 07:59:27 51°16.493 2°53.106 336.7 12.2 335 13.8
2005-11-28 07:59:32 51°16.509 2°53.095 337.5 12.3 335 13.5
2005-11-28 07:59:36 51°16.521 2°53.086 338.2 12.3 335 13.5
2005-11-28 07:59:42 51°16.539 2°53.072 337.8 12.2 335 13.6
2005-11-28 07:59:47 51°16.554 2°53.06 337.5 12.2 334 13.5
2005-11-28 07:59:52 51°16.569 2°53.048 337.3 12.3 334 13.4
2005-11-28 07:59:56 51°16.582 2°53.038 337.1 12.2 334 13.3
2005-11-28 08:00:02 51°16.6 2°53.024 337 12.2 333 13.5
2005-11-28 08:00:07 51°16.615 2°53.012 336.8 12.1 334 13.2
2005-11-28 08:00:12 51°16.63 2°53 337.2 12.1 334 13.1
2005-11-28 08:00:16 51°16.642 2°52.99 337.2 12.1 333 13.1
2005-11-28 08:00:22 51°16.66 2°52.977 337 12.1 334 13.1
2005-11-28 08:00:27 51°16.675 2°52.965 336.9 12 333 13.1
2005-11-28 08:00:32 51°16.69 2°52.953 337.2 12 334 12.9
2005-11-28 08:00:36 51°16.701 2°52.944 337.5 12 334 13
2005-11-28 08:00:42 51°16.719 2°52.929 337.1 12 333 12.7
2005-11-28 08:00:47 51°16.734 2°52.917 336.7 12 333 12.4
2005-11-28 08:00:52 51°16.749 2°52.905 336.8 12 333 12.5
2005-11-28 08:00:56 51°16.761 2°52.896 337.1 11.9 333 12.3
2005-11-28 08:01:02 51°16.779 2°52.881 336.8 12 333 12
2005-11-28 08:01:07 51°16.794 2°52.87 337.2 12 333 11.5
2005-11-28 08:01:12 51°16.809 2°52.858 337.7 12 334 11.2
2005-11-28 08:01:17 51°16.824 2°52.846 337.6 11.9 334 11.1
2005-11-28 08:01:22 51°16.839 2°52.835 337.5 11.9 334 11
2005-11-28 08:01:27 51°16.853 2°52.824 336.9 11.8 334 11.2
2005-11-28 08:01:32 51°16.868 2°52.812 337.5 11.8 334 10.9
2005-11-28 08:01:36 51°16.88 2°52.803 337.3 11.7 334 11.1
2005-11-28 08:01:42 51°16.898 2°52.79 337.5 11.8 334 11.1
2005-11-28 08:01:47 51°16.913 2°52.778 337.3 11.9 333 11.2
2005-11-28 08:01:52 51°16.928 2°52.767 337.5 11.9 335 11.1
2005-11-28 08:01:56 51°16.939 2°52.757 337.5 11.8 335 11.1
2005-11-28 08:02:00 51°16.951 2°52.748 337.3 11.8 335 11.2
2005-11-28 08:02:07 51°16.972 2°52.732 337.4 12 335 11.4
2005-11-28 08:02:12 51°16.987 2°52.72 337.5 12 335 11.5
2005-11-28 08:02:17 51°17.001 2°52.71 337.4 12 335 11.9
2005-11-28 08:02:22 51°17.016 2°52.699 337.3 11.9 335 11.7
2005-11-28 08:02:27 51°17.031 2°52.688 337.9 12 335 12.1
2005-11-28 08:02:32 51°17.046 2°52.676 337.7 11.9 334 12.1
2005-11-28 08:02:36 51°17.058 2°52.666 337.1 11.9 334 11.8
2005-11-28 08:02:42 51°17.076 2°52.652 336.7 11.9 333 11.9
2005-11-28 08:02:47 51°17.091 2°52.64 337.1 11.9 333 11.6
2005-11-28 08:02:52 51°17.106 2°52.628 337.3 11.9 334 11.5
2005-11-28 08:02:56 51°17.117 2°52.618 337.1 12 333 11.4
2005-11-28 08:03:02 51°17.135 2°52.603 336.1 12 332 11.4
2005-11-28 08:03:07 51°17.15 2°52.59 335.5 12 331 11.4
2005-11-28 08:03:12 51°17.164 2°52.578 334.9 12 331 11.7
2005-11-28 08:03:16 51°17.176 2°52.568 334.9 11.9 331 11.5
2005-11-28 08:03:22 51°17.193 2°52.553 334.4 11.9 331 11.8
2005-11-28 08:03:27 51°17.208 2°52.539 334.4 11.9 330 11.7
2005-11-28 08:03:32 51°17.222 2°52.526 334 12 330 11.6
2005-11-28 08:03:36 51°17.233 2°52.515 334 12 330 11.9
2005-11-28 08:03:42 51°17.25 2°52.499 333.8 11.9 330 11.8
2005-11-28 08:03:47 51°17.264 2°52.486 333.8 11.9 330 11.8
2005-11-28 08:03:52 51°17.279 2°52.472 333.8 11.9 330 12
2005-11-28 08:03:56 51°17.29 2°52.461 333.8 12.1 329 12
2005-11-28 08:04:02 51°17.307 2°52.444 332.9 12.1 328 12.1
2005-11-28 08:04:07 51°17.321 2°52.43 332.2 12.2 328 12.3
2005-11-28 08:04:12 51°17.335 2°52.415 331.8 12.2 328 12.2
2005-11-28 08:04:16 51°17.346 2°52.403 331 12 326 12
2005-11-28 08:04:22 51°17.363 2°52.384 329.6 12 324 12.1
2005-11-28 08:04:27 51°17.376 2°52.369 328.7 12.1 324 12.3
2005-11-28 08:04:32 51°17.39 2°52.353 328.1 12 324 12.2
2005-11-28 08:04:36 51°17.401 2°52.341 327.7 12 324 12
2005-11-28 08:04:42 51°17.417 2°52.322 327.8 12 324 12.2
2005-11-28 08:04:47 51°17.429 2°52.304 327.2 12 323 12.2
2005-11-28 08:04:52 51°17.442 2°52.286 324.7 11.9 318 12.2
2005-11-28 08:04:56 51°17.451 2°52.272 322.9 11.9 318 12.4
2005-11-28 08:05:02 51°17.465 2°52.249 321 11.8 315 12.3
2005-11-28 08:05:07 51°17.475 2°52.23 318.4 11.9 312 12.4
2005-11-28 08:05:12 51°17.486 2°52.209 316.1 11.9 312 12.3
2005-11-28 08:05:16 51°17.494 2°52.193 314.6 11.9 308 12.4
2005-11-28 08:05:22 51°17.506 2°52.167 313 11.9 307 12.4
2005-11-28 08:05:27 51°17.515 2°52.146 311.2 11.9 305 12.4
2005-11-28 08:05:32 51°17.524 2°52.124 309.1 11.8 304 12.4
2005-11-28 08:05:36 51°17.531 2°52.106 308.4 11.8 304 12.3
2005-11-28 08:05:42 51°17.542 2°52.079 307.8 11.9 302 12.4
2005-11-28 08:05:47 51°17.55 2°52.057 307.2 11.8 303 12.5
2005-11-28 08:05:52 51°17.558 2°52.035 306.2 11.8 303 12.4
2005-11-28 08:05:56 51°17.564 2°52.017 305.2 11.7 301 12.4
2005-11-28 08:06:02 51°17.574 2°51.989 305.5 11.8 299 12.2
2005-11-28 08:06:07 51°17.582 2°51.967 304.6 11.8 299 12.4
2005-11-28 08:06:12 51°17.59 2°51.943 304.7 11.8 299 12.2
2005-11-28 08:06:16 51°17.597 2°51.925 303.5 11.8 299 12.5
2005-11-28 08:06:22 51°17.606 2°51.897 303.4 11.6 297 12.3
2005-11-28 08:06:27 51°17.614 2°51.873 302.8 11.6 298 12.2
2005-11-28 08:06:32 51°17.621 2°51.852 302.9 11.6 298 12.5
2005-11-28 08:06:36 51°17.627 2°51.833 302.7 11.4 297 12.3
2005-11-28 08:06:42 51°17.636 2°51.807 302.6 11.5 297 12.3
2005-11-28 08:06:47 51°17.644 2°51.784 302.4 11.5 298 12.2
2005-11-28 08:06:52 51°17.651 2°51.761 302.6 11.5 298 12.2
2005-11-28 08:06:56 51°17.658 2°51.743 302.9 11.7 298 12.1
2005-11-28 08:07:02 51°17.666 2°51.716 302.6 11.8 299 12.1
2005-11-28 08:07:07 51°17.674 2°51.693 302.9 11.7 298 11.8
2005-11-28 08:07:12 51°17.682 2°51.669 302.7 11.7 298 11.8
2005-11-28 08:07:16 51°17.688 2°51.651 302.6 11.8 298 11.7
2005-11-28 08:07:22 51°17.698 2°51.623 302.8 11.9 298 11.7
2005-11-28 08:07:27 51°17.706 2°51.599 303.1 11.8 298 11.7
2005-11-28 08:07:32 51°17.714 2°51.576 303 11.9 298 11.8
2005-11-28 08:07:36 51°17.72 2°51.557 302 11.9 298 11.9
2005-11-28 08:07:42 51°17.728 2°51.529 301.6 11.9 295 11.7
2005-11-28 08:07:47 51°17.735 2°51.505 301 11.8 296 11.7
2005-11-28 08:07:52 51°17.742 2°51.483 300.6 11.7 295 11.9
2005-11-28 08:07:56 51°17.747 2°51.464 300.9 11.9 297 11.8
2005-11-28 08:08:02 51°17.756 2°51.435 301.1 11.6 296 11.8
2005-11-28 08:08:07 51°17.763 2°51.412 301.3 11.7 296 12
2005-11-28 08:08:12 51°17.77 2°51.389 301.2 11.7 296 12.1
2005-11-28 08:08:16 51°17.776 2°51.37 301.1 11.7 297 12
2005-11-28 08:08:22 51°17.784 2°51.342 301.6 11.8 296 12.2
2005-11-28 08:08:27 51°17.792 2°51.319 301.8 11.8 296 12.3
2005-11-28 08:08:32 51°17.799 2°51.296 301.4 11.8 297 12.2
2005-11-28 08:08:36 51°17.805 2°51.277 301.7 11.8 297 12.5
2005-11-28 08:08:42 51°17.813 2°51.25 301.4 11.7 296 12.5
2005-11-28 08:08:47 51°17.821 2°51.226 301.7 11.7 297 12.5
2005-11-28 08:08:52 51°17.828 2°51.203 301.9 11.8 297 12.4
2005-11-28 08:08:56 51°17.834 2°51.184 301.3 11.9 297 12.5
2005-11-28 08:09:02 51°17.843 2°51.156 301.6 11.8 296 12.7
2005-11-28 08:09:07 51°17.85 2°51.132 301.5 11.9 296 12.8
2005-11-28 08:09:12 51°17.857 2°51.108 301.9 11.9 296 12.9
2005-11-28 08:09:16 51°17.864 2°51.089 301.4 11.9 297 13.1
2005-11-28 08:09:22 51°17.872 2°51.061 301.6 11.9 296 13.1
2005-11-28 08:09:27 51°17.88 2°51.037 301.2 11.7 296 13.3
2005-11-28 08:09:32 51°17.886 2°51.014 301.4 11.7 295 13.4
2005-11-28 08:09:36 51°17.892 2°50.996 300.9 11.7 295 13.5
2005-11-28 08:09:42 51°17.9 2°50.968 300.4 11.6 297 13.7
2005-11-28 08:09:47 51°17.907 2°50.945 301.9 11.5 296 13.7
2005-11-28 08:09:52 51°17.914 2°50.922 301.8 11.5 296 13.8
2005-11-28 08:09:56 51°17.92 2°50.903 301.2 11.6 296 13.9
2005-11-28 08:10:02 51°17.928 2°50.876 301.5 11.8 296 14.1
2005-11-28 08:10:07 51°17.935 2°50.852 301.4 11.8 296 14.2
2005-11-28 08:10:12 51°17.942 2°50.829 301.2 11.7 295 14.2
2005-11-28 08:10:17 51°17.949 2°50.805 301.2 11.7 296 14.1
2005-11-28 08:10:22 51°17.957 2°50.781 301.2 11.7 296 14.3
2005-11-28 08:10:27 51°17.964 2°50.758 301.7 11.7 296 14.5
2005-11-28 08:10:32 51°17.971 2°50.735 302.1 11.8 296 14.5
2005-11-28 08:10:36 51°17.977 2°50.716 301.5 11.9 296 14.6
2005-11-28 08:10:42 51°17.986 2°50.688 301.8 11.8 296 14.7
2005-11-28 08:10:47 51°17.993 2°50.664 302 11.9 296 14.7
2005-11-28 08:10:52 51°18 2°50.641 301.7 11.9 296 14.7
2005-11-28 08:10:56 51°18.006 2°50.622 301.8 11.9 296 14.7
2005-11-28 08:11:02 51°18.015 2°50.594 301.6 11.8 297 14.8
2005-11-28 08:11:07 51°18.022 2°50.571 301.7 11.7 296 14.8
2005-11-28 08:11:12 51°18.03 2°50.547 302 11.7 296 14.8
2005-11-28 08:11:17 51°18.037 2°50.524 302 11.8 295 14.9
2005-11-28 08:11:22 51°18.044 2°50.501 302.4 11.8 296 15
2005-11-28 08:11:27 51°18.051 2°50.477 302.6 11.9 297 15.1
2005-11-28 08:11:32 51°18.058 2°50.454 302.4 11.9 296 15
2005-11-28 08:11:36 51°18.064 2°50.435 302.7 11.9 296 15.1
2005-11-28 08:11:42 51°18.073 2°50.407 302.6 11.8 297 15.4
2005-11-28 08:11:47 51°18.081 2°50.383 302.6 11.9 297 15.4
2005-11-28 08:11:52 51°18.088 2°50.36 302.3 11.8 297 15.6
2005-11-28 08:11:56 51°18.093 2°50.341 301.9 11.7 295 15.5
2005-11-28 08:12:02 51°18.102 2°50.312 301.1 11.8 296 15.6
2005-11-28 08:12:07 51°18.109 2°50.289 301.7 11.8 296 15.6
2005-11-28 08:12:12 51°18.116 2°50.265 301.4 11.8 296 15.6
2005-11-28 08:12:16 51°18.122 2°50.247 302.1 11.8 298 15.7
2005-11-28 08:12:22 51°18.131 2°50.219 302.3 11.9 296 16.1
2005-11-28 08:12:27 51°18.138 2°50.195 302.4 11.7 297 15.7
2005-11-28 08:12:32 51°18.146 2°50.172 302 11.8 297 15.9
2005-11-28 08:12:36 51°18.152 2°50.154 302.2 11.8 297 16.1
2005-11-28 08:12:42 51°18.16 2°50.126 302.6 11.7 296 15.9
2005-11-28 08:12:47 51°18.167 2°50.103 301.9 11.8 297 15.9
2005-11-28 08:12:52 51°18.175 2°50.08 302.3 11.8 298 16
2005-11-28 08:12:56 51°18.181 2°50.061 302.5 11.9 297 16.1
2005-11-28 08:13:02 51°18.19 2°50.033 302.4 11.9 297 16.1
2005-11-28 08:13:07 51°18.197 2°50.009 302.3 11.9 297 16
2005-11-28 08:13:12 51°18.204 2°49.985 301.4 11.9 297 16.1
2005-11-28 08:13:16 51°18.21 2°49.966 300.5 12.1 296 16
2005-11-28 08:13:22 51°18.219 2°49.937 299.9 12.1 294 16.1
2005-11-28 08:13:27 51°18.226 2°49.912 299.7 12 294 16.1
2005-11-28 08:13:32 51°18.233 2°49.888 299.8 12 295 15.9
2005-11-28 08:13:36 51°18.239 2°49.868 299.2 12 295 16
2005-11-28 08:13:42 51°18.247 2°49.839 299.2 11.9 296 15.8
2005-11-28 08:13:47 51°18.254 2°49.815 299.6 12 295 15.8
2005-11-28 08:13:52 51°18.261 2°49.791 299.5 12 295 15.9
2005-11-28 08:13:56 51°18.266 2°49.771 299.3 12.1 294 15.7
2005-11-28 08:14:02 51°18.274 2°49.742 299.1 11.9 295 15.8
2005-11-28 08:14:07 51°18.281 2°49.718 299 12 294 15.6
2005-11-28 08:14:12 51°18.288 2°49.694 299.2 11.9 295 15.4
2005-11-28 08:14:16 51°18.293 2°49.675 299 12 295 15.2
2005-11-28 08:14:22 51°18.302 2°49.646 299.3 11.9 296 15.3
2005-11-28 08:14:27 51°18.309 2°49.622 299.4 11.9 294 15.2
2005-11-28 08:14:32 51°18.316 2°49.598 299.2 11.8 295 14.9
2005-11-28 08:14:36 51°18.321 2°49.579 299 11.7 294 15.2
2005-11-28 08:14:42 51°18.329 2°49.551 299.1 11.8 294 14.8
2005-11-28 08:14:47 51°18.336 2°49.527 298.8 11.8 294 14.7
2005-11-28 08:14:52 51°18.342 2°49.504 299 11.8 293 14.6
2005-11-28 08:14:56 51°18.347 2°49.484 299.5 11.7 295 14
2005-11-28 08:15:02 51°18.355 2°49.456 298.7 11.8 295 13.7
2005-11-28 08:15:07 51°18.362 2°49.432 299.3 11.7 295 13.4
2005-11-28 08:15:12 51°18.369 2°49.409 299.3 11.8 294 13.5
2005-11-28 08:15:16 51°18.373 2°49.391 299.4 11.7 295 13.5
2005-11-28 08:15:22 51°18.38 2°49.364 298.3 11.7 293 13.7
2005-11-28 08:15:27 51°18.386 2°49.339 299 11.5 293 13.5
2005-11-28 08:15:32 51°18.393 2°49.316 298.4 11.7 293 13.5
2005-11-28 08:15:36 51°18.398 2°49.297 299.2 11.6 295 13.2
2005-11-28 08:15:42 51°18.407 2°49.269 298.8 11.6 296 13.1
2005-11-28 08:15:47 51°18.413 2°49.245 299.6 11.4 293 12.7
2005-11-28 08:15:52 51°18.42 2°49.223 298.7 11.6 293 12.7
2005-11-28 08:15:56 51°18.425 2°49.203 299 11.5 293 12.4
2005-11-28 08:16:02 51°18.433 2°49.176 299 11.5 295 12.6
2005-11-28 08:16:07 51°18.439 2°49.152 299.5 11.5 293 12.5
2005-11-28 08:16:12 51°18.446 2°49.129 299.1 11.6 293 12.2
2005-11-28 08:16:16 51°18.451 2°49.11 299 11.6 293 12.5
2005-11-28 08:16:22 51°18.459 2°49.083 298.9 11.5 294 12.8
2005-11-28 08:16:27 51°18.465 2°49.06 299.3 11.6 295 12.9
2005-11-28 08:16:32 51°18.471 2°49.036 299.1 11.7 294 12.8
2005-11-28 08:16:36 51°18.476 2°49.017 298.8 11.6 295 12.7
2005-11-28 08:16:42 51°18.485 2°48.989 298.9 11.7 293 12.6
2005-11-28 08:16:47 51°18.492 2°48.966 299 11.8 294 12.8
2005-11-28 08:16:52 51°18.498 2°48.942 299.7 11.8 294 12.7
2005-11-28 08:16:56 51°18.504 2°48.924 299.5 11.6 295 12.5
2005-11-28 08:17:02 51°18.511 2°48.896 299 11.7 294 12.4
2005-11-28 08:17:06 51°18.517 2°48.877 299.2 11.7 294 11.7
2005-11-28 08:17:12 51°18.525 2°48.849 299 11.5 294 12
2005-11-28 08:17:16 51°18.53 2°48.831 299.2 11.5 294 12.7
2005-11-28 08:17:22 51°18.538 2°48.803 299.3 11.6 296 12.9
2005-11-28 08:17:27 51°18.545 2°48.779 299.5 11.7 294 13.1
2005-11-28 08:17:32 51°18.551 2°48.755 299.2 11.6 293 13.3
2005-11-28 08:17:36 51°18.557 2°48.737 299.6 11.6 293 13.4
2005-11-28 08:17:42 51°18.564 2°48.709 299.1 11.6 294 13.1
2005-11-28 08:17:47 51°18.57 2°48.687 298.9 11.5 294 13.1
2005-11-28 08:17:52 51°18.576 2°48.664 298.6 11.5 294 13.1
2005-11-28 08:17:56 51°18.581 2°48.645 299 11.3 294 12.6
2005-11-28 08:18:02 51°18.589 2°48.618 299 11.2 294 13
2005-11-28 08:18:07 51°18.596 2°48.596 299.2 11.2 295 13.4
2005-11-28 08:18:12 51°18.603 2°48.573 299.5 11.2 295 13.4
2005-11-28 08:18:16 51°18.608 2°48.555 299.5 11.4 295 13.5
2005-11-28 08:18:22 51°18.616 2°48.527 299.5 11.4 296 14.1
2005-11-28 08:18:27 51°18.623 2°48.503 300 11.4 295 14.2
2005-11-28 08:18:32 51°18.63 2°48.481 299.9 11.4 295 14.8
2005-11-28 08:18:36 51°18.635 2°48.462 299.7 11.5 294 14.9
2005-11-28 08:18:42 51°18.643 2°48.435 299.5 11.5 295 14.9
2005-11-28 08:18:46 51°18.648 2°48.416 299 11.7 293 14.6
2005-11-28 08:18:52 51°18.656 2°48.388 298.8 11.4 295 14.7
2005-11-28 08:18:56 51°18.661 2°48.369 298.9 11.5 294 14.7
2005-11-28 08:19:02 51°18.67 2°48.341 299.3 11.7 296 15.1
2005-11-28 08:19:07 51°18.676 2°48.317 299.6 11.7 294 15.3
2005-11-28 08:19:12 51°18.683 2°48.295 299.9 11.8 296 15.8
2005-11-28 08:19:16 51°18.689 2°48.276 299.5 11.7 294 16
2005-11-28 08:19:22 51°18.697 2°48.246 299.3 11.6 295 15.9
2005-11-28 08:19:27 51°18.703 2°48.223 299 11.6 293 16
2005-11-28 08:19:32 51°18.709 2°48.2 298.8 11.7 293 16.1
2005-11-28 08:19:36 51°18.715 2°48.18 298.6 11.6 294 16.2
2005-11-28 08:19:42 51°18.723 2°48.152 299.4 11.8 294 16.3
2005-11-28 08:19:47 51°18.73 2°48.129 299.3 11.9 295 16.5
2005-11-28 08:19:52 51°18.736 2°48.105 299.4 11.9 295 16.5
2005-11-28 08:19:56 51°18.742 2°48.085 299.3 11.9 294 16.7
2005-11-28 08:20:02 51°18.75 2°48.056 299.5 11.8 294 16.9
2005-11-28 08:20:07 51°18.757 2°48.032 299.2 11.8 294 17.2
2005-11-28 08:20:12 51°18.763 2°48.009 299.4 11.9 295 17.5
2005-11-28 08:20:16 51°18.769 2°47.99 299 11.9 292 17.4
2005-11-28 08:20:22 51°18.777 2°47.96 298.4 11.8 294 17.4
2005-11-28 08:20:27 51°18.783 2°47.937 299 11.9 294 17.6
2005-11-28 08:20:32 51°18.79 2°47.912 299.1 11.9 293 17.7
2005-11-28 08:20:36 51°18.795 2°47.893 298.9 11.8 293 17.8
2005-11-28 08:20:42 51°18.803 2°47.865 299.3 11.9 294 17.9
2005-11-28 08:20:47 51°18.81 2°47.84 298.7 11.7 294 17.8
2005-11-28 08:20:52 51°18.816 2°47.817 299.3 11.7 294 18.2
2005-11-28 08:20:56 51°18.822 2°47.797 299.2 11.7 294 18.6
2005-11-28 08:21:02 51°18.829 2°47.77 299.4 11.8 293 18.7
2005-11-28 08:21:07 51°18.836 2°47.746 299.3 11.7 295 18.9
2005-11-28 08:21:12 51°18.843 2°47.723 299.5 11.8 295 19.3
2005-11-28 08:21:17 51°18.85 2°47.698 299.6 11.6 295 19.4
2005-11-28 08:21:22 51°18.856 2°47.676 299.7 11.7 293 20
2005-11-28 08:21:27 51°18.862 2°47.652 298.9 11.6 293 20.1
2005-11-28 08:21:32 51°18.869 2°47.628 298.8 11.7 294 20.3
2005-11-28 08:21:36 51°18.875 2°47.609 299.1 11.7 294 20.7
2005-11-28 08:21:42 51°18.883 2°47.581 299.5 11.6 295 20.7
2005-11-28 08:21:47 51°18.889 2°47.558 299.6 11.8 294 21
2005-11-28 08:21:52 51°18.896 2°47.534 298.9 11.8 293 21
2005-11-28 08:21:56 51°18.901 2°47.514 298 11.8 293 20.8
2005-11-28 08:22:02 51°18.909 2°47.485 298.3 11.9 294 20.9
2005-11-28 08:22:07 51°18.915 2°47.461 298.5 11.9 293 20.8
2005-11-28 08:22:12 51°18.922 2°47.437 298.7 12.1 294 21
2005-11-28 08:22:16 51°18.927 2°47.417 299.2 11.9 293 21.1
2005-11-28 08:22:22 51°18.935 2°47.388 298.8 12.1 294 21.1
2005-11-28 08:22:27 51°18.942 2°47.363 298.9 12.2 293 21.3
2005-11-28 08:22:32 51°18.948 2°47.338 298.7 12.1 293 21.2
2005-11-28 08:22:36 51°18.953 2°47.318 298.2 12.1 292 21.4
2005-11-28 08:22:42 51°18.96 2°47.289 298 12 291 21.6
2005-11-28 08:22:47 51°18.966 2°47.265 298.1 12 293 21.8
2005-11-28 08:22:52 51°18.973 2°47.24 298.3 11.8 293 21.8
2005-11-28 08:22:56 51°18.978 2°47.221 298.9 11.9 293 22
2005-11-28 08:23:02 51°18.986 2°47.192 298.8 12 292 22.4
2005-11-28 08:23:07 51°18.992 2°47.167 299 11.9 292 22.4
2005-11-28 08:23:12 51°18.998 2°47.143 298.7 11.9 293 22.3
2005-11-28 08:23:16 51°19.003 2°47.123 299 12 293 22.4
2005-11-28 08:23:22 51°19.011 2°47.094 298.9 12 292 22.7
2005-11-28 08:23:27 51°19.018 2°47.07 299.1 12 293 22.8
2005-11-28 08:23:32 51°19.024 2°47.045 299.7 12 294 22.8
2005-11-28 08:23:36 51°19.029 2°47.025 299.6 12.2 294 22.8
2005-11-28 08:23:42 51°19.038 2°46.996 299.2 12.1 295 23.1
2005-11-28 08:23:47 51°19.045 2°46.972 300.2 12.1 293 23.1
2005-11-28 08:23:52 51°19.052 2°46.948 300.3 12.1 296 23.1
2005-11-28 08:23:56 51°19.058 2°46.928 300.2 12.1 294 23.3
2005-11-28 08:24:02 51°19.066 2°46.898 300 12 295 23
2005-11-28 08:24:07 51°19.073 2°46.875 299.4 12.1 295 23.3
2005-11-28 08:24:12 51°19.08 2°46.851 299.7 12.1 295 23.4
2005-11-28 08:24:16 51°19.086 2°46.831 300.4 12.2 294 23.4
2005-11-28 08:24:22 51°19.094 2°46.802 300.1 12 295 23.2
2005-11-28 08:24:27 51°19.1 2°46.777 299.1 12 293 23.3
2005-11-28 08:24:32 51°19.107 2°46.753 298.9 12.1 294 23.3
2005-11-28 08:24:36 51°19.113 2°46.734 299.2 12.1 294 23.3
2005-11-28 08:24:42 51°19.121 2°46.705 299.3 12.1 294 23.4
2005-11-28 08:24:47 51°19.127 2°46.68 298.9 12.1 293 23.3
2005-11-28 08:24:52 51°19.134 2°46.655 298.3 12.1 293 23.4
2005-11-28 08:24:56 51°19.14 2°46.636 297.9 12 295 23.4
2005-11-28 08:25:02 51°19.148 2°46.607 298.7 12.1 294 23.6
2005-11-28 08:25:07 51°19.155 2°46.582 298.7 12.1 295 23.6
2005-11-28 08:25:12 51°19.162 2°46.559 299 12.2 294 23.7
2005-11-28 08:25:16 51°19.168 2°46.539 299.1 12.1 296 23.6
2005-11-28 08:25:22 51°19.176 2°46.509 298.8 12 294 23.6
2005-11-28 08:25:27 51°19.183 2°46.486 298.8 12.1 295 23.4
2005-11-28 08:25:32 51°19.19 2°46.461 298.5 12.1 295 23
2005-11-28 08:25:36 51°19.195 2°46.441 298.2 11.8 295 23
2005-11-28 08:25:42 51°19.203 2°46.413 298.3 12 294 22.6
2005-11-28 08:25:46 51°19.209 2°46.394 298.2 11.9 295 22.6
2005-11-28 08:25:52 51°19.218 2°46.365 298.3 12 296 22.2
2005-11-28 08:25:56 51°19.224 2°46.346 298.9 11.9 295 22.2
2005-11-28 08:26:02 51°19.231 2°46.317 299 11.9 296 21.9
2005-11-28 08:26:07 51°19.238 2°46.294 297.4 11.7 294 22
2005-11-28 08:26:12 51°19.245 2°46.27 298.3 11.8 296 21.8
2005-11-28 08:26:16 51°19.251 2°46.251 298.2 11.8 296 21.8
2005-11-28 08:26:22 51°19.259 2°46.223 298 11.8 295 21.8
2005-11-28 08:26:27 51°19.266 2°46.199 298.5 11.9 294 21.5
2005-11-28 08:26:32 51°19.273 2°46.175 297.6 11.9 294 21.8
2005-11-28 08:26:36 51°19.278 2°46.156 297 11.9 295 22.3
2005-11-28 08:26:42 51°19.286 2°46.127 296.4 11.9 292 22
2005-11-28 08:26:47 51°19.292 2°46.103 296 11.7 293 21.5
2005-11-28 08:26:52 51°19.298 2°46.078 296.3 11.8 292 21
2005-11-28 08:26:56 51°19.303 2°46.059 295.4 11.8 294 20.7
2005-11-28 08:27:02 51°19.311 2°46.031 296.1 11.8 294 20.7
2005-11-28 08:27:07 51°19.317 2°46.007 296.6 11.8 292 20.1
2005-11-28 08:27:12 51°19.324 2°45.983 295.9 11.8 292 19.8
2005-11-28 08:27:16 51°19.329 2°45.963 296.1 12 295 18.8
2005-11-28 08:27:22 51°19.337 2°45.934 295.9 11.7 295 19.7
2005-11-28 08:27:27 51°19.343 2°45.911 296.3 11.7 294 19.7
2005-11-28 08:27:32 51°19.35 2°45.887 296 11.7 294 19.2
2005-11-28 08:27:36 51°19.355 2°45.868 296.3 11.8 293 17.9
2005-11-28 08:27:42 51°19.363 2°45.839 295.9 11.8 295 19.2
2005-11-28 08:27:47 51°19.369 2°45.815 296.1 11.8 293 19
2005-11-28 08:27:52 51°19.375 2°45.79 296.2 11.8 293 18.3
2005-11-28 08:27:56 51°19.381 2°45.771 295.8 11.9 293 16.9
2005-11-28 08:28:02 51°19.388 2°45.742 296.3 11.8 293 18
2005-11-28 08:28:07 51°19.395 2°45.719 295.5 11.9 294 17.9
2005-11-28 08:28:12 51°19.401 2°45.694 296.5 11.9 294 17.2
2005-11-28 08:28:16 51°19.407 2°45.675 296 11.9 293 16.6
2005-11-28 08:28:22 51°19.414 2°45.645 295.9 11.8 293 16
2005-11-28 08:28:27 51°19.421 2°45.623 295.4 11.7 291 15.1
2005-11-28 08:28:32 51°19.426 2°45.599 296.2 11.6 294 15.8
2005-11-28 08:28:36 51°19.431 2°45.58 295.4 11.6 291 14.8
2005-11-28 08:28:42 51°19.439 2°45.551 295.9 11.5 293 13.4
2005-11-28 08:28:47 51°19.445 2°45.529 295.2 11.6 291 14.7
2005-11-28 08:28:52 51°19.451 2°45.504 296.2 11.6 294 15
2005-11-28 08:28:56 51°19.456 2°45.485 296 11.6 291 14.4
2005-11-28 08:29:02 51°19.463 2°45.457 296.2 11.6 293 13.6
2005-11-28 08:29:07 51°19.469 2°45.432 295.7 11.6 292 14.4
2005-11-28 08:29:12 51°19.476 2°45.408 295.8 11.7 293 14.5
2005-11-28 08:29:16 51°19.48 2°45.389 295.8 11.7 291 14.2
2005-11-28 08:29:22 51°19.488 2°45.361 295.4 11.8 294 13.5
2005-11-28 08:29:27 51°19.494 2°45.337 296.3 11.7 293 12.6
2005-11-28 08:29:32 51°19.5 2°45.314 295.4 11.5 292 14.2
2005-11-28 08:29:36 51°19.506 2°45.295 296.5 11.6 294 13.2
2005-11-28 08:29:42 51°19.513 2°45.267 296.7 11.6 293 15.1
2005-11-28 08:29:47 51°19.52 2°45.243 296.4 11.6 293 16
2005-11-28 08:29:52 51°19.526 2°45.219 296.5 11.7 293 15
2005-11-28 08:29:57 51°19.532 2°45.195 296.3 11.7 292 15.6
2005-11-28 08:30:02 51°19.539 2°45.171 296.4 11.6 293 16.2
2005-11-28 08:30:07 51°19.544 2°45.148 296.7 11.6 293 17.1
2005-11-28 08:30:12 51°19.551 2°45.123 296.5 11.6 292 17.9
2005-11-28 08:30:16 51°19.556 2°45.105 295.8 11.6 293 19.2
2005-11-28 08:30:22 51°19.563 2°45.076 296.2 11.6 292 19.9
2005-11-28 08:30:27 51°19.569 2°45.053 295.5 11.6 294 19.5
2005-11-28 08:30:32 51°19.576 2°45.029 296.4 11.6 294 20.7
2005-11-28 08:30:36 51°19.581 2°45.009 295.9 11.8 293 22
2005-11-28 08:30:42 51°19.588 2°44.981 296.5 11.7 293 22.6
2005-11-28 08:30:47 51°19.595 2°44.957 296.2 11.7 293 23
2005-11-28 08:30:52 51°19.601 2°44.934 295.9 11.7 293 23.4
2005-11-28 08:30:56 51°19.606 2°44.914 296.2 11.8 293 23.4
2005-11-28 08:31:02 51°19.614 2°44.885 296 11.9 293 23.6
2005-11-28 08:31:07 51°19.62 2°44.861 296.4 11.9 293 23.7
2005-11-28 08:31:12 51°19.627 2°44.837 296.6 11.9 293 23.7
2005-11-28 08:31:16 51°19.632 2°44.817 295.8 11.8 292 23.9
2005-11-28 08:31:22 51°19.64 2°44.788 295.7 11.8 293 24
2005-11-28 08:31:27 51°19.646 2°44.765 296 11.9 293 24.2
2005-11-28 08:31:32 51°19.652 2°44.74 295.9 11.9 293 24.2
2005-11-28 08:31:36 51°19.657 2°44.722 295.8 11.8 293 23.8
2005-11-28 08:31:42 51°19.664 2°44.692 295.9 11.6 292 24.2
2005-11-28 08:31:47 51°19.671 2°44.668 295.5 11.6 294 24.1
2005-11-28 08:31:52 51°19.677 2°44.645 296.1 11.7 292 24.3
2005-11-28 08:31:56 51°19.682 2°44.625 295.9 11.7 293 24.4
2005-11-28 08:32:02 51°19.69 2°44.597 296.1 11.7 294 24.5
2005-11-28 08:32:07 51°19.697 2°44.573 296.5 11.8 294 24.7
2005-11-28 08:32:12 51°19.704 2°44.549 296.8 11.9 294 24.8
2005-11-28 08:32:16 51°19.709 2°44.53 296.5 12 294 25
2005-11-28 08:32:22 51°19.717 2°44.501 296.5 12.1 293 25.2
2005-11-28 08:32:27 51°19.723 2°44.476 296.2 12 293 25.1
2005-11-28 08:32:32 51°19.73 2°44.452 296.1 12.1 293 25.3
2005-11-28 08:32:36 51°19.735 2°44.433 295.9 12 292 25.2
2005-11-28 08:32:42 51°19.743 2°44.403 295.3 11.9 293 25.4
2005-11-28 08:32:47 51°19.749 2°44.379 296 11.9 295 25.6
2005-11-28 08:32:52 51°19.756 2°44.355 296.3 11.9 293 25.8
2005-11-28 08:32:56 51°19.761 2°44.336 296.3 12 294 26
2005-11-28 08:33:02 51°19.769 2°44.306 296.1 11.9 292 25.9
2005-11-28 08:33:07 51°19.775 2°44.282 295.7 11.8 293 26.2
2005-11-28 08:33:12 51°19.782 2°44.258 295.3 11.8 293 26.1
2005-11-28 08:33:16 51°19.787 2°44.239 296.1 11.9 294 25.9
2005-11-28 08:33:22 51°19.794 2°44.21 296.1 11.9 293 25.9
2005-11-28 08:33:27 51°19.801 2°44.186 296.1 11.9 293 25.9
2005-11-28 08:33:32 51°19.807 2°44.161 296.4 11.8 293 26.1
2005-11-28 08:33:36 51°19.813 2°44.142 295.9 12 294 26.3
2005-11-28 08:33:42 51°19.821 2°44.113 296.7 11.9 294 26.2
2005-11-28 08:33:47 51°19.827 2°44.089 296.2 12 294 26.3
2005-11-28 08:33:52 51°19.834 2°44.065 296.8 12 294 26.3
2005-11-28 08:33:56 51°19.84 2°44.046 296.2 12 294 26.4
2005-11-28 08:34:02 51°19.848 2°44.016 296.7 12.1 294 26.6
2005-11-28 08:34:07 51°19.854 2°43.992 296.7 12.1 294 26.3
2005-11-28 08:34:12 51°19.861 2°43.968 296.1 12.1 294 26
2005-11-28 08:34:16 51°19.867 2°43.948 296.5 12 293 25.9
2005-11-28 08:34:22 51°19.875 2°43.918 296.1 11.9 294 25.9
2005-11-28 08:34:27 51°19.881 2°43.895 295.9 12 294 26.5
2005-11-28 08:34:32 51°19.888 2°43.87 296.1 12 294 26.7
2005-11-28 08:34:36 51°19.893 2°43.851 296.4 12 294 27.3
2005-11-28 08:34:42 51°19.901 2°43.821 296.4 11.9 294 27.3
2005-11-28 08:34:47 51°19.908 2°43.798 295.7 12 293 27.8
2005-11-28 08:34:52 51°19.914 2°43.774 296.3 12 293 27.8
2005-11-28 08:34:56 51°19.919 2°43.754 296 11.9 293 28.1
2005-11-28 08:35:02 51°19.927 2°43.725 295.9 11.8 293 28.2
2005-11-28 08:35:07 51°19.933 2°43.701 295.4 11.7 293 28.3
2005-11-28 08:35:12 51°19.94 2°43.677 296.1 11.8 295 28.5
2005-11-28 08:35:16 51°19.945 2°43.658 296.2 11.8 292 28.8
2005-11-28 08:35:22 51°19.953 2°43.629 296.2 11.9 294 28.9
2005-11-28 08:35:27 51°19.96 2°43.605 296.6 11.9 294 28.8
2005-11-28 08:35:32 51°19.967 2°43.581 296.6 12 294 29
2005-11-28 08:35:36 51°19.972 2°43.562 296.4 11.9 294 29
2005-11-28 08:35:42 51°19.98 2°43.533 296.8 12 294 29
2005-11-28 08:35:47 51°19.987 2°43.508 296.4 12 294 29
2005-11-28 08:35:52 51°19.994 2°43.484 296.1 12.1 293 29.1
2005-11-28 08:35:56 51°19.999 2°43.464 296.4 12 293 28.9
2005-11-28 08:36:02 51°20.007 2°43.435 295.8 11.9 294 28.7
2005-11-28 08:36:07 51°20.014 2°43.411 296.1 12.1 294 28.7
2005-11-28 08:36:12 51°20.02 2°43.386 296.6 11.9 294 28.5
2005-11-28 08:36:16 51°20.025 2°43.367 295.4 12 293 28.5
2005-11-28 08:36:22 51°20.034 2°43.338 296.3 12.1 296 28.5
2005-11-28 08:36:27 51°20.041 2°43.314 296.8 12 293 28.5
2005-11-28 08:36:32 51°20.048 2°43.29 296.8 11.8 295 28.3
2005-11-28 08:36:36 51°20.052 2°43.271 296.1 11.8 293 28.6
2005-11-28 08:36:42 51°20.061 2°43.242 296.7 11.7 294 28.6
2005-11-28 08:36:47 51°20.067 2°43.218 296.5 11.8 294 28.7
2005-11-28 08:36:52 51°20.073 2°43.195 296.5 11.7 294 28.7
2005-11-28 08:36:56 51°20.079 2°43.175 296.2 11.8 293 28.7
2005-11-28 08:37:02 51°20.087 2°43.147 295.9 11.9 294 28.7
2005-11-28 08:37:07 51°20.094 2°43.123 296.1 11.8 294 28.8
2005-11-28 08:37:12 51°20.1 2°43.099 296.3 11.9 294 28.7
2005-11-28 08:37:16 51°20.106 2°43.08 296.5 11.9 295 28.5
2005-11-28 08:37:22 51°20.113 2°43.051 296.8 11.9 294 28.6
2005-11-28 08:37:27 51°20.12 2°43.027 296.7 11.8 295 28.4
2005-11-28 08:37:32 51°20.127 2°43.004 296.1 11.7 293 28.6
2005-11-28 08:37:36 51°20.132 2°42.984 296.3 11.8 295 28.5
2005-11-28 08:37:42 51°20.14 2°42.956 295.9 11.7 293 28.3
2005-11-28 08:37:47 51°20.146 2°42.932 296.3 11.6 293 27.9
2005-11-28 08:37:52 51°20.153 2°42.908 295.9 11.7 292 27.6
2005-11-28 08:37:57 51°20.159 2°42.885 296.1 11.7 292 26.5
2005-11-28 08:38:02 51°20.165 2°42.861 296.1 11.5 292 27
2005-11-28 08:38:07 51°20.171 2°42.837 295.2 11.7 293 27.5
2005-11-28 08:38:12 51°20.178 2°42.814 295.6 11.8 292 27.4
2005-11-28 08:38:16 51°20.183 2°42.795 296.3 11.7 294 27.1
2005-11-28 08:38:22 51°20.191 2°42.766 295.4 11.8 292 27.3
2005-11-28 08:38:27 51°20.198 2°42.743 296.8 11.8 295 27.1
2005-11-28 08:38:32 51°20.204 2°42.719 296.6 11.7 294 27.1
2005-11-28 08:38:36 51°20.209 2°42.7 296.2 11.6 294 27.1
2005-11-28 08:38:42 51°20.217 2°42.672 296 11.7 293 27.1
2005-11-28 08:38:47 51°20.224 2°42.648 296.1 11.6 294 26.7
2005-11-28 08:38:52 51°20.23 2°42.625 295.6 11.6 294 26.1
2005-11-28 08:38:57 51°20.237 2°42.601 296.3 11.7 294 25.9
2005-11-28 08:39:02 51°20.243 2°42.577 295.8 11.8 293 24.3
2005-11-28 08:39:07 51°20.25 2°42.554 296.4 11.8 296 25.4
2005-11-28 08:39:12 51°20.256 2°42.529 296.2 11.7 293 25.7
2005-11-28 08:39:16 51°20.262 2°42.511 296.4 11.8 295 25.8
2005-11-28 08:39:22 51°20.27 2°42.482 296.1 11.7 294 25.8
2005-11-28 08:39:27 51°20.277 2°42.459 296.3 11.8 295 24.9
2005-11-28 08:39:32 51°20.283 2°42.435 296.5 11.6 293 22.9
2005-11-28 08:39:36 51°20.288 2°42.416 296.4 11.7 295 24
2005-11-28 08:39:42 51°20.297 2°42.388 296.1 11.8 295 24.4
2005-11-28 08:39:47 51°20.304 2°42.364 296.6 11.8 295 24.7
2005-11-28 08:39:52 51°20.31 2°42.341 296.8 11.8 294 24.1
2005-11-28 08:39:57 51°20.317 2°42.316 296.8 11.8 295 23.6
2005-11-28 08:40:02 51°20.324 2°42.293 296.6 11.7 295 22.8
2005-11-28 08:40:07 51°20.33 2°42.269 296.9 11.8 295 21.7
2005-11-28 08:40:12 51°20.337 2°42.245 296.8 11.7 295 22.5
2005-11-28 08:40:16 51°20.343 2°42.226 296.1 11.7 293 22.2
2005-11-28 08:40:22 51°20.35 2°42.198 296.6 11.7 295 20
2005-11-28 08:40:27 51°20.357 2°42.175 296 11.6 293 17.4
2005-11-28 08:40:32 51°20.364 2°42.152 296.1 11.6 295 20
2005-11-28 08:40:36 51°20.369 2°42.133 296.4 11.5 294 21.2
2005-11-28 08:40:42 51°20.377 2°42.106 296.1 11.7 295 22
2005-11-28 08:40:47 51°20.384 2°42.082 297 11.7 295 20.8
2005-11-28 08:40:52 51°20.39 2°42.059 296 11.6 293 20.4
2005-11-28 08:40:57 51°20.397 2°42.035 296.1 11.5 293 20.7
2005-11-28 08:41:02 51°20.402 2°42.011 296 11.5 292 21.2
2005-11-28 08:41:07 51°20.408 2°41.987 293.4 11.6 291 21.4
2005-11-28 08:41:12 51°20.412 2°41.962 291.4 11.6 286 20.8
2005-11-28 08:41:16 51°20.416 2°41.943 289.5 11.5 287 18.6
2005-11-28 08:41:22 51°20.421 2°41.913 288.5 11.5 287 20.2
2005-11-28 08:41:27 51°20.425 2°41.889 288.1 11.6 285 21.6
2005-11-28 08:41:32 51°20.429 2°41.864 286.7 11.2 284 22.4
2005-11-28 08:41:36 51°20.432 2°41.844 286.6 11.4 283 21.2
2005-11-28 08:41:42 51°20.436 2°41.815 285.6 11.4 283 21.5
2005-11-28 08:41:47 51°20.441 2°41.79 286.2 11.6 285 22.7
2005-11-28 08:41:52 51°20.445 2°41.766 286.5 11.5 285 23.3
2005-11-28 08:41:56 51°20.448 2°41.746 286.4 11.5 285 23.6
2005-11-28 08:42:02 51°20.452 2°41.716 286.5 11.6 284 23.4
2005-11-28 08:42:07 51°20.457 2°41.691 286.8 11.6 285 23.1
2005-11-28 08:42:12 51°20.461 2°41.667 286.6 11.6 285 23.4
2005-11-28 08:42:16 51°20.464 2°41.646 287.1 11.7 285 23.1
2005-11-28 08:42:22 51°20.469 2°41.617 286.9 11.6 286 23.2
2005-11-28 08:42:27 51°20.474 2°41.591 286.6 11.7 284 23.3
2005-11-28 08:42:32 51°20.478 2°41.567 286.8 11.6 284 23.5
2005-11-28 08:42:36 51°20.481 2°41.547 286.6 11.6 284 22.9
2005-11-28 08:42:42 51°20.486 2°41.517 286.5 11.6 285 22.6
2005-11-28 08:42:47 51°20.49 2°41.492 287 11.7 285 22.6
2005-11-28 08:42:52 51°20.494 2°41.467 286.7 11.6 286 22.9
2005-11-28 08:42:56 51°20.498 2°41.448 287.2 11.6 286 23.2
2005-11-28 08:43:02 51°20.502 2°41.417 287.7 11.7 287 24.1
2005-11-28 08:43:07 51°20.507 2°41.393 287 11.7 283 24.2
2005-11-28 08:43:12 51°20.511 2°41.368 287.2 11.7 283 23.5
2005-11-28 08:43:16 51°20.515 2°41.348 287.6 11.8 286 24.1
2005-11-28 08:43:22 51°20.52 2°41.318 287.4 11.6 286 24.9
2005-11-28 08:43:27 51°20.524 2°41.294 287.2 11.7 285 25.8
2005-11-28 08:43:32 51°20.528 2°41.268 286.9 11.5 284 26.7
2005-11-28 08:43:36 51°20.532 2°41.248 286 11.6 284 27.6
2005-11-28 08:43:42 51°20.535 2°41.218 285.2 11.7 281 28.5
2005-11-28 08:43:47 51°20.538 2°41.193 283 11.7 281 29.2
2005-11-28 08:43:52 51°20.54 2°41.167 282.1 11.7 277 29.6
2005-11-28 08:43:56 51°20.542 2°41.146 280.7 11.7 279 29.8
2005-11-28 08:44:02 51°20.545 2°41.115 279.7 11.8 276 30.1
2005-11-28 08:44:07 51°20.548 2°41.089 279.4 11.8 279 30.3
2005-11-28 08:44:12 51°20.549 2°41.063 279.5 11.7 275 30.1
2005-11-28 08:44:16 51°20.55 2°41.042 278.7 11.7 276 30.3
2005-11-28 08:44:22 51°20.553 2°41.012 279.4 11.8 277 30.1
2005-11-28 08:44:27 51°20.555 2°40.986 278.4 11.8 278 30
2005-11-28 08:44:32 51°20.557 2°40.96 279.3 11.7 278 30
2005-11-28 08:44:36 51°20.559 2°40.94 280 11.8 278 30